createdAt,value
2019-03-08T00:01:50.010Z,1.00
2019-03-08T00:06:55.820Z,1.20
2019-03-08T00:12:01.581Z,1.00
2019-03-08T00:17:07.511Z,1.30
2019-03-08T00:22:13.281Z,1.60
2019-03-08T00:27:19.420Z,1.10
2019-03-08T00:32:25.103Z,1.30
2019-03-08T00:37:30.868Z,1.10
2019-03-08T00:42:36.621Z,1.10
2019-03-08T00:47:43.547Z,0.80
2019-03-08T00:52:50.556Z,0.90
2019-03-08T00:57:56.342Z,1.00
2019-03-08T01:03:02.088Z,0.87
2019-03-08T01:08:07.948Z,0.70
2019-03-08T01:13:14.899Z,1.13
2019-03-08T01:18:20.684Z,1.23
2019-03-08T01:23:26.446Z,1.23
2019-03-08T01:28:33.199Z,1.10
2019-03-08T01:33:39.114Z,0.90
2019-03-08T01:38:45.337Z,0.83
2019-03-08T01:43:51.100Z,1.03
2019-03-08T01:48:56.781Z,0.90
2019-03-08T01:54:02.446Z,1.40
2019-03-08T01:59:08.184Z,1.00
2019-03-08T02:04:13.892Z,1.13
2019-03-08T02:09:21.331Z,0.93
2019-03-08T02:14:27.079Z,1.37
2019-03-08T02:19:32.975Z,0.90
2019-03-08T02:24:38.629Z,1.40
2019-03-08T02:29:44.385Z,1.17
2019-03-08T02:34:51.246Z,1.13
2019-03-08T02:39:57.198Z,0.93
2019-03-08T02:45:03.023Z,1.03
2019-03-08T02:50:09.264Z,0.97
2019-03-08T02:55:14.212Z,1.00
2019-03-08T03:00:20.363Z,0.90
2019-03-08T03:05:26.069Z,1.30
2019-03-08T03:10:31.758Z,1.10
2019-03-08T03:15:37.573Z,1.07
2019-03-08T03:20:43.512Z,0.90
2019-03-08T03:25:51.078Z,1.10
2019-03-08T03:30:56.907Z,1.10
2019-03-08T03:36:02.609Z,1.20
2019-03-08T03:41:10.650Z,1.40
2019-03-08T03:46:16.401Z,1.17
2019-03-08T03:51:22.081Z,1.10
2019-03-08T03:56:27.838Z,1.30
2019-03-08T04:01:35.080Z,0.90
2019-03-08T04:06:41.124Z,1.27
2019-03-08T04:11:47.481Z,1.10
2019-03-08T04:16:53.245Z,1.40
2019-03-08T04:22:00.681Z,1.20
2019-03-08T04:27:06.443Z,0.80
2019-03-08T04:32:12.654Z,1.03
2019-03-08T04:37:18.422Z,1.27
2019-03-08T04:42:24.200Z,0.87
2019-03-08T04:47:30.339Z,0.80
2019-03-08T04:52:36.023Z,0.70
2019-03-08T04:57:41.798Z,0.90
2019-03-08T05:02:47.544Z,0.97
2019-03-08T05:07:54.487Z,1.13
2019-03-08T05:13:00.527Z,1.00
2019-03-08T05:18:06.238Z,1.20
2019-03-08T05:23:12.019Z,1.03
2019-03-08T05:28:17.775Z,0.90
2019-03-08T05:33:23.510Z,1.00
2019-03-08T05:38:29.292Z,0.90
2019-03-08T05:43:35.121Z,0.70
2019-03-08T05:48:42.955Z,0.90
2019-03-08T05:53:48.731Z,0.90
2019-03-08T05:58:54.509Z,1.13
2019-03-08T06:04:00.286Z,1.10
2019-03-08T06:09:07.844Z,1.73
2019-03-08T06:14:13.685Z,1.00
2019-03-08T06:19:19.497Z,0.90
2019-03-08T06:24:25.244Z,0.70
2019-03-08T06:29:31.005Z,0.80
2019-03-08T06:34:36.857Z,0.90
2019-03-08T06:39:42.794Z,1.10
2019-03-08T06:44:48.447Z,0.80
2019-03-08T06:49:54.221Z,1.03
2019-03-08T06:55:00.290Z,0.73
2019-03-08T07:00:24.232Z,0.70
2019-03-08T07:05:29.977Z,1.03
2019-03-08T07:10:35.721Z,0.80
2019-03-08T07:15:41.459Z,0.83
2019-03-08T07:20:48.808Z,0.60
2019-03-08T07:26:02.412Z,0.83
2019-03-08T07:31:21.486Z,1.00
2019-03-08T07:36:37.715Z,0.70
2019-03-08T07:42:01.192Z,1.30
2019-03-08T07:47:11.544Z,1.20
2019-03-08T07:52:21.869Z,1.00
2019-03-08T07:57:45.685Z,1.00
2019-03-08T08:03:03.294Z,0.70
2019-03-08T08:08:10.834Z,1.10
2019-03-08T08:13:30.391Z,1.03
2019-03-08T08:18:49.798Z,0.90
2019-03-08T08:24:00.063Z,1.27
2019-03-08T08:29:09.027Z,1.07
2019-03-08T08:34:22.331Z,1.50
2019-03-08T08:39:41.608Z,1.40
2019-03-08T08:44:53.134Z,1.67
2019-03-08T08:50:00.563Z,1.33
2019-03-08T08:55:12.551Z,1.43
2019-03-08T09:00:37.076Z,2.10
2019-03-08T09:05:53.504Z,2.00
2019-03-08T09:11:07.262Z,1.60
2019-03-08T09:16:14.678Z,1.77
2019-03-08T09:21:28.059Z,1.80
2019-03-08T09:26:44.233Z,1.77
2019-03-08T09:32:04.828Z,1.87
2019-03-08T09:37:12.168Z,1.13
2019-03-08T09:42:25.552Z,1.90
2019-03-08T09:47:35.640Z,1.63
2019-03-08T09:52:52.982Z,1.67
2019-03-08T09:58:03.283Z,1.90
2019-03-08T10:03:13.566Z,1.60
2019-03-08T10:08:20.878Z,1.20
2019-03-08T10:13:47.330Z,0.83
2019-03-08T10:19:11.924Z,0.70
2019-03-08T10:24:22.009Z,0.60
2019-03-08T10:29:38.494Z,0.50
2019-03-08T10:34:48.929Z,0.80
2019-03-08T10:40:12.402Z,0.40
2019-03-08T10:45:31.711Z,0.60
2019-03-08T10:50:39.045Z,0.60
2019-03-08T10:55:46.337Z,1.00
2019-03-08T11:00:53.746Z,0.70
2019-03-08T11:06:06.889Z,0.70
2019-03-08T11:11:20.133Z,0.90
2019-03-08T11:16:45.872Z,1.03
2019-03-08T11:21:56.329Z,0.93
2019-03-08T11:27:05.146Z,1.13
2019-03-08T11:32:27.810Z,1.63
2019-03-08T11:37:38.219Z,1.03
2019-03-08T11:42:48.401Z,2.17
2019-03-08T11:47:55.746Z,1.40
2019-03-08T11:53:13.053Z,1.80
2019-03-08T11:58:23.493Z,2.20
2019-03-08T12:03:49.026Z,1.77
2019-03-08T12:08:59.308Z,2.00
2019-03-08T12:14:15.764Z,2.57
2019-03-08T12:19:41.044Z,1.73
2019-03-08T12:24:54.050Z,2.87
2019-03-08T12:30:07.305Z,3.87
2019-03-08T12:35:17.500Z,3.27
2019-03-08T12:40:27.438Z,2.70
2019-03-08T12:45:40.818Z,2.73
2019-03-08T12:51:05.151Z,2.77
2019-03-08T12:56:18.281Z,2.87
2019-03-08T13:01:43.719Z,3.50
2019-03-08T13:06:54.013Z,3.07
2019-03-08T13:11:59.708Z,2.57
2019-03-08T13:17:05.606Z,3.13
2019-03-08T13:22:11.643Z,4.37
2019-03-08T13:27:17.385Z,2.60
2019-03-08T13:32:23.113Z,2.90
2019-03-08T13:37:28.889Z,3.30
2019-03-08T13:42:34.740Z,2.87
2019-03-08T13:47:40.576Z,3.53
2019-03-08T13:52:46.332Z,3.30
2019-03-08T13:57:52.010Z,1.90
2019-03-08T14:02:57.809Z,3.33
2019-03-08T14:08:03.858Z,3.97
2019-03-08T14:13:09.641Z,2.23
2019-03-08T14:18:15.692Z,3.33
2019-03-08T14:23:21.464Z,2.40
2019-03-08T14:28:27.231Z,3.07
2019-03-08T14:33:34.279Z,2.73
2019-03-08T14:38:40.519Z,2.30
2019-03-08T14:43:48.999Z,2.47
2019-03-08T14:48:55.291Z,2.53
2019-03-08T14:54:01.053Z,2.00
2019-03-08T14:59:06.753Z,2.13
2019-03-08T15:04:12.581Z,2.30
2019-03-08T15:09:18.273Z,2.30
2019-03-08T15:14:24.216Z,2.30
2019-03-08T15:19:29.917Z,3.17
2019-03-08T15:24:38.581Z,2.10
2019-03-08T15:29:43.289Z,2.33
2019-03-08T15:34:49.035Z,2.30
2019-03-08T15:39:54.715Z,1.50
2019-03-08T15:45:01.944Z,2.27
2019-03-08T15:50:21.322Z,2.53
2019-03-08T15:55:28.521Z,2.67
2019-03-08T16:00:35.738Z,3.53
2019-03-08T16:05:41.567Z,2.80
2019-03-08T16:10:49.003Z,2.27
2019-03-08T16:15:54.743Z,2.37
2019-03-08T16:21:00.791Z,3.60
2019-03-08T16:26:06.595Z,2.27
2019-03-08T16:31:25.602Z,2.97
2019-03-08T16:36:38.192Z,3.00
2019-03-08T16:41:48.180Z,3.60
2019-03-08T16:47:12.373Z,4.23
2019-03-08T16:52:32.694Z,3.40
2019-03-08T16:57:40.219Z,3.20
2019-03-08T17:02:53.635Z,2.97
2019-03-08T17:08:18.596Z,2.80
2019-03-08T17:13:25.966Z,2.57
2019-03-08T17:18:39.089Z,2.57
2019-03-08T17:23:55.618Z,3.57
2019-03-08T17:29:19.436Z,3.30
2019-03-08T17:34:42.218Z,3.70
2019-03-08T17:39:55.708Z,4.47
2019-03-08T17:45:21.112Z,2.97
2019-03-08T17:50:31.556Z,3.27
2019-03-08T17:55:55.468Z,3.23
2019-03-08T18:01:19.234Z,4.07
2019-03-08T18:06:42.850Z,3.77
2019-03-08T18:11:58.966Z,2.87
2019-03-08T18:17:13.215Z,3.73
2019-03-08T18:22:23.534Z,3.73
2019-03-08T18:27:47.381Z,3.47
2019-03-08T18:33:00.928Z,2.90
2019-03-08T18:38:23.489Z,4.10
2019-03-08T18:43:30.858Z,4.57
2019-03-08T18:48:44.206Z,3.30
2019-03-08T18:54:09.912Z,3.50
2019-03-08T18:59:35.592Z,3.50
2019-03-08T19:04:45.646Z,4.27
2019-03-08T19:10:05.174Z,4.87
2019-03-08T19:15:30.851Z,4.10
2019-03-08T19:20:54.429Z,4.13
2019-03-08T19:26:07.695Z,4.23
2019-03-08T19:31:21.340Z,4.70
2019-03-08T19:36:44.727Z,3.23
2019-03-08T19:41:52.073Z,2.90
2019-03-08T19:47:09.141Z,3.73
2019-03-08T19:52:16.448Z,2.90
2019-03-08T19:57:26.791Z,3.20
2019-03-08T20:02:49.349Z,2.50
2019-03-08T20:08:08.861Z,2.60
2019-03-08T20:13:31.505Z,2.77
2019-03-08T20:18:42.954Z,2.37
2019-03-08T20:24:06.663Z,2.07
2019-03-08T20:29:32.363Z,2.10
2019-03-08T20:34:39.698Z,2.13
2019-03-08T20:39:51.603Z,2.10
2019-03-08T20:44:58.953Z,2.50
2019-03-08T20:50:07.220Z,2.40
2019-03-08T20:55:13.557Z,2.43
2019-03-08T21:00:19.815Z,2.83
2019-03-08T21:05:26.135Z,2.77
2019-03-08T21:10:32.401Z,3.07
2019-03-08T21:15:38.730Z,2.97
2019-03-08T21:20:44.800Z,3.20
2019-03-08T21:25:52.115Z,3.13
2019-03-08T21:30:58.487Z,3.23
2019-03-08T21:36:04.615Z,2.80
2019-03-08T21:41:10.448Z,3.57
2019-03-08T21:46:16.269Z,2.67
2019-03-08T21:51:25.768Z,2.90
2019-03-08T21:56:31.588Z,2.57
2019-03-08T22:01:37.530Z,3.03
2019-03-08T22:06:57.107Z,3.03
2019-03-08T22:12:03.537Z,3.07
2019-03-08T22:17:09.582Z,3.90
2019-03-08T22:22:15.773Z,3.30
2019-03-08T22:27:21.824Z,3.37
2019-03-08T22:32:27.611Z,3.40
2019-03-08T22:37:33.437Z,3.67
2019-03-08T22:42:40.084Z,2.90
2019-03-08T22:47:46.066Z,3.83
2019-03-08T22:52:51.806Z,3.83
2019-03-08T22:57:57.562Z,2.90
2019-03-08T23:03:03.362Z,3.93
2019-03-08T23:08:09.117Z,4.10
2019-03-08T23:13:14.951Z,3.03
2019-03-08T23:18:20.645Z,3.03
2019-03-08T23:23:26.394Z,3.43
2019-03-08T23:28:36.676Z,3.37
2019-03-08T23:33:42.487Z,2.83
2019-03-08T23:38:48.367Z,3.63
2019-03-08T23:43:54.202Z,3.13
2019-03-08T23:48:59.950Z,3.57
2019-03-08T23:54:05.620Z,3.33
2019-03-08T23:59:11.483Z,4.33
